sensor_id;sensor_type;location;lat;lon;timestamp;P1;durP1;ratioP1;P2;durP2;ratioP2
23078;SDS011;11707;50.830;4.364;2023-07-02T00:01:46;31.80;;;15.75;;
23078;SDS011;11707;50.830;4.364;2023-07-02T00:04:13;32.60;;;16.38;;
23078;SDS011;11707;50.830;4.364;2023-07-02T00:06:44;34.00;;;15.88;;
23078;SDS011;11707;50.830;4.364;2023-07-02T00:09:15;26.90;;;15.25;;
23078;SDS011;11707;50.830;4.364;2023-07-02T00:11:42;37.72;;;16.40;;
23078;SDS011;11707;50.830;4.364;2023-07-02T00:14:09;29.63;;;17.13;;
23078;SDS011;11707;50.830;4.364;2023-07-02T00:16:37;32.55;;;16.75;;
23078;SDS011;11707;50.830;4.364;2023-07-02T00:19:09;33.38;;;16.40;;
23078;SDS011;11707;50.830;4.364;2023-07-02T00:21:35;32.60;;;16.33;;
23078;SDS011;11707;50.830;4.364;2023-07-02T00:24:02;29.77;;;16.63;;
23078;SDS011;11707;50.830;4.364;2023-07-02T00:26:28;35.95;;;17.00;;
23078;SDS011;11707;50.830;4.364;2023-07-02T00:28:54;39.83;;;17.17;;
23078;SDS011;11707;50.830;4.364;2023-07-02T00:31:21;39.00;;;16.98;;
23078;SDS011;11707;50.830;4.364;2023-07-02T00:33:49;31.85;;;16.52;;
23078;SDS011;11707;50.830;4.364;2023-07-02T00:36:16;31.90;;;16.85;;
23078;SDS011;11707;50.830;4.364;2023-07-02T00:38:42;41.53;;;18.50;;
23078;SDS011;11707;50.830;4.364;2023-07-02T00:41:09;28.33;;;17.00;;
23078;SDS011;11707;50.830;4.364;2023-07-02T00:43:35;33.75;;;18.50;;
23078;SDS011;11707;50.830;4.364;2023-07-02T00:46:04;33.50;;;18.30;;
23078;SDS011;11707;50.830;4.364;2023-07-02T00:48:30;35.72;;;18.13;;
23078;SDS011;11707;50.830;4.364;2023-07-02T00:50:57;33.03;;;17.35;;
23078;SDS011;11707;50.830;4.364;2023-07-02T00:53:24;32.25;;;19.30;;
23078;SDS011;11707;50.830;4.364;2023-07-02T00:55:50;31.02;;;16.55;;
23078;SDS011;11707;50.830;4.364;2023-07-02T00:58:16;35.92;;;19.05;;
23078;SDS011;11707;50.830;4.364;2023-07-02T01:00:42;39.47;;;20.42;;
23078;SDS011;11707;50.830;4.364;2023-07-02T01:03:08;35.45;;;19.38;;
23078;SDS011;11707;50.830;4.364;2023-07-02T01:05:36;38.33;;;18.75;;
23078;SDS011;11707;50.830;4.364;2023-07-02T01:08:04;41.42;;;19.98;;
23078;SDS011;11707;50.830;4.364;2023-07-02T01:10:31;36.28;;;19.30;;
23078;SDS011;11707;50.830;4.364;2023-07-02T01:13:01;36.67;;;18.85;;
23078;SDS011;11707;50.830;4.364;2023-07-02T01:15:36;37.97;;;19.75;;
23078;SDS011;11707;50.830;4.364;2023-07-02T01:18:05;35.00;;;18.40;;
23078;SDS011;11707;50.830;4.364;2023-07-02T01:20:32;40.85;;;19.27;;
23078;SDS011;11707;50.830;4.364;2023-07-02T01:22:59;39.05;;;19.20;;
23078;SDS011;11707;50.830;4.364;2023-07-02T01:25:28;40.55;;;21.17;;
23078;SDS011;11707;50.830;4.364;2023-07-02T01:27:54;43.55;;;20.30;;
23078;SDS011;11707;50.830;4.364;2023-07-02T01:30:24;35.42;;;19.58;;
23078;SDS011;11707;50.830;4.364;2023-07-02T01:32:51;36.05;;;18.98;;
23078;SDS011;11707;50.830;4.364;2023-07-02T01:35:16;39.08;;;19.83;;
23078;SDS011;11707;50.830;4.364;2023-07-02T01:37:42;44.88;;;20.73;;
23078;SDS011;11707;50.830;4.364;2023-07-02T01:40:10;37.90;;;21.17;;
23078;SDS011;11707;50.830;4.364;2023-07-02T01:42:36;42.38;;;22.70;;
23078;SDS011;11707;50.830;4.364;2023-07-02T01:45:05;49.58;;;26.65;;
23078;SDS011;11707;50.830;4.364;2023-07-02T01:47:31;39.53;;;20.65;;
23078;SDS011;11707;50.830;4.364;2023-07-02T01:49:57;41.65;;;21.48;;
23078;SDS011;11707;50.830;4.364;2023-07-02T01:52:22;48.63;;;20.63;;
23078;SDS011;11707;50.830;4.364;2023-07-02T01:54:48;51.03;;;22.10;;
23078;SDS011;11707;50.830;4.364;2023-07-02T01:57:13;43.83;;;21.98;;
23078;SDS011;11707;50.830;4.364;2023-07-02T01:59:39;36.38;;;19.30;;
23078;SDS011;11707;50.830;4.364;2023-07-02T02:02:07;41.20;;;21.77;;
23078;SDS011;11707;50.830;4.364;2023-07-02T02:04:35;42.58;;;21.88;;
23078;SDS011;11707;50.830;4.364;2023-07-02T02:07:03;46.80;;;22.33;;
23078;SDS011;11707;50.830;4.364;2023-07-02T02:09:29;45.80;;;22.02;;
23078;SDS011;11707;50.830;4.364;2023-07-02T02:11:57;44.53;;;22.35;;
23078;SDS011;11707;50.830;4.364;2023-07-02T02:14:22;38.67;;;20.95;;
23078;SDS011;11707;50.830;4.364;2023-07-02T02:16:51;46.78;;;22.55;;
23078;SDS011;11707;50.830;4.364;2023-07-02T02:19:19;46.72;;;22.80;;
23078;SDS011;11707;50.830;4.364;2023-07-02T02:21:45;41.05;;;21.23;;
23078;SDS011;11707;50.830;4.364;2023-07-02T02:24:13;42.05;;;21.83;;
23078;SDS011;11707;50.830;4.364;2023-07-02T02:26:38;46.38;;;23.55;;
23078;SDS011;11707;50.830;4.364;2023-07-02T02:29:04;50.13;;;22.60;;
23078;SDS011;11707;50.830;4.364;2023-07-02T02:31:33;46.47;;;22.85;;
23078;SDS011;11707;50.830;4.364;2023-07-02T02:33:58;42.35;;;22.65;;
23078;SDS011;11707;50.830;4.364;2023-07-02T02:36:24;52.20;;;23.42;;
23078;SDS011;11707;50.830;4.364;2023-07-02T02:38:49;43.90;;;22.95;;
23078;SDS011;11707;50.830;4.364;2023-07-02T02:41:15;45.28;;;22.77;;
23078;SDS011;11707;50.830;4.364;2023-07-02T02:43:41;44.88;;;22.95;;
23078;SDS011;11707;50.830;4.364;2023-07-02T02:46:11;46.67;;;21.90;;
23078;SDS011;11707;50.830;4.364;2023-07-02T02:48:39;45.33;;;24.67;;
23078;SDS011;11707;50.830;4.364;2023-07-02T02:51:05;47.42;;;24.00;;
23078;SDS011;11707;50.830;4.364;2023-07-02T02:53:30;45.10;;;22.50;;
23078;SDS011;11707;50.830;4.364;2023-07-02T02:55:59;62.95;;;27.02;;
23078;SDS011;11707;50.830;4.364;2023-07-02T02:58:24;46.85;;;24.20;;
23078;SDS011;11707;50.830;4.364;2023-07-02T03:00:52;50.78;;;24.67;;
23078;SDS011;11707;50.830;4.364;2023-07-02T03:03:21;49.13;;;24.52;;
23078;SDS011;11707;50.830;4.364;2023-07-02T03:05:49;48.78;;;22.33;;
23078;SDS011;11707;50.830;4.364;2023-07-02T03:08:15;51.78;;;25.92;;
23078;SDS011;11707;50.830;4.364;2023-07-02T03:10:41;53.75;;;24.95;;
23078;SDS011;11707;50.830;4.364;2023-07-02T03:13:07;50.22;;;24.83;;
23078;SDS011;11707;50.830;4.364;2023-07-02T03:15:32;50.03;;;25.13;;
23078;SDS011;11707;50.830;4.364;2023-07-02T03:17:58;43.42;;;24.05;;
23078;SDS011;11707;50.830;4.364;2023-07-02T03:20:24;51.67;;;24.08;;
23078;SDS011;11707;50.830;4.364;2023-07-02T03:22:49;56.53;;;26.08;;
23078;SDS011;11707;50.830;4.364;2023-07-02T03:25:17;54.15;;;25.58;;
23078;SDS011;11707;50.830;4.364;2023-07-02T03:27:45;61.67;;;27.77;;
23078;SDS011;11707;50.830;4.364;2023-07-02T03:30:14;57.13;;;26.73;;
23078;SDS011;11707;50.830;4.364;2023-07-02T03:32:39;54.10;;;24.85;;
23078;SDS011;11707;50.830;4.364;2023-07-02T03:35:05;60.75;;;26.63;;
23078;SDS011;11707;50.830;4.364;2023-07-02T03:37:31;59.58;;;27.77;;
23078;SDS011;11707;50.830;4.364;2023-07-02T03:39:56;56.35;;;27.23;;
23078;SDS011;11707;50.830;4.364;2023-07-02T03:42:24;58.95;;;28.92;;
23078;SDS011;11707;50.830;4.364;2023-07-02T03:44:50;66.05;;;28.88;;
23078;SDS011;11707;50.830;4.364;2023-07-02T03:47:15;57.35;;;26.88;;
23078;SDS011;11707;50.830;4.364;2023-07-02T03:49:44;61.35;;;28.13;;
23078;SDS011;11707;50.830;4.364;2023-07-02T03:52:12;58.88;;;29.42;;
23078;SDS011;11707;50.830;4.364;2023-07-02T03:54:38;61.05;;;27.92;;
23078;SDS011;11707;50.830;4.364;2023-07-02T03:57:04;62.65;;;27.48;;
23078;SDS011;11707;50.830;4.364;2023-07-02T03:59:29;64.90;;;29.42;;
23078;SDS011;11707;50.830;4.364;2023-07-02T04:01:55;60.42;;;28.13;;
23078;SDS011;11707;50.830;4.364;2023-07-02T04:04:21;60.92;;;28.35;;
23078;SDS011;11707;50.830;4.364;2023-07-02T04:06:49;65.35;;;28.48;;
23078;SDS011;11707;50.830;4.364;2023-07-02T04:09:19;60.15;;;26.92;;
23078;SDS011;11707;50.830;4.364;2023-07-02T04:11:47;70.35;;;28.40;;
23078;SDS011;11707;50.830;4.364;2023-07-02T04:14:13;63.25;;;29.05;;
23078;SDS011;11707;50.830;4.364;2023-07-02T04:16:39;68.10;;;29.52;;
23078;SDS011;11707;50.830;4.364;2023-07-02T04:19:04;61.08;;;29.15;;
23078;SDS011;11707;50.830;4.364;2023-07-02T04:21:30;63.65;;;28.88;;
23078;SDS011;11707;50.830;4.364;2023-07-02T04:23:55;66.32;;;28.67;;
23078;SDS011;11707;50.830;4.364;2023-07-02T04:26:23;60.83;;;29.05;;
23078;SDS011;11707;50.830;4.364;2023-07-02T04:28:53;57.58;;;26.77;;
23078;SDS011;11707;50.830;4.364;2023-07-02T04:31:19;61.72;;;27.67;;
23078;SDS011;11707;50.830;4.364;2023-07-02T04:33:45;62.05;;;27.58;;
23078;SDS011;11707;50.830;4.364;2023-07-02T04:36:11;64.78;;;29.65;;
23078;SDS011;11707;50.830;4.364;2023-07-02T04:38:37;64.50;;;27.88;;
23078;SDS011;11707;50.830;4.364;2023-07-02T04:41:05;64.88;;;29.75;;
23078;SDS011;11707;50.830;4.364;2023-07-02T04:43:31;65.43;;;30.48;;
23078;SDS011;11707;50.830;4.364;2023-07-02T04:46:00;62.65;;;28.30;;
23078;SDS011;11707;50.830;4.364;2023-07-02T04:48:26;69.88;;;28.90;;
23078;SDS011;11707;50.830;4.364;2023-07-02T04:50:54;64.30;;;29.38;;
23078;SDS011;11707;50.830;4.364;2023-07-02T04:53:20;55.95;;;27.85;;
23078;SDS011;11707;50.830;4.364;2023-07-02T04:55:46;57.47;;;29.13;;
23078;SDS011;11707;50.830;4.364;2023-07-02T04:58:11;56.13;;;28.17;;
23078;SDS011;11707;50.830;4.364;2023-07-02T05:00:37;69.32;;;29.73;;
23078;SDS011;11707;50.830;4.364;2023-07-02T05:03:05;63.55;;;28.13;;
23078;SDS011;11707;50.830;4.364;2023-07-02T05:05:31;56.70;;;28.55;;
23078;SDS011;11707;50.830;4.364;2023-07-02T05:07:59;63.10;;;30.17;;
23078;SDS011;11707;50.830;4.364;2023-07-02T05:10:24;56.53;;;28.85;;
23078;SDS011;11707;50.830;4.364;2023-07-02T05:12:50;54.75;;;29.02;;
23078;SDS011;11707;50.830;4.364;2023-07-02T05:15:18;56.42;;;28.23;;
23078;SDS011;11707;50.830;4.364;2023-07-02T05:17:43;57.75;;;29.60;;
23078;SDS011;11707;50.830;4.364;2023-07-02T05:20:09;52.05;;;24.98;;
23078;SDS011;11707;50.830;4.364;2023-07-02T05:22:35;58.25;;;28.33;;
23078;SDS011;11707;50.830;4.364;2023-07-02T05:25:00;57.13;;;27.00;;
23078;SDS011;11707;50.830;4.364;2023-07-02T05:27:29;60.70;;;28.45;;
23078;SDS011;11707;50.830;4.364;2023-07-02T05:29:54;57.50;;;28.42;;
23078;SDS011;11707;50.830;4.364;2023-07-02T05:32:20;59.78;;;29.35;;
23078;SDS011;11707;50.830;4.364;2023-07-02T05:34:46;63.40;;;27.02;;
23078;SDS011;11707;50.830;4.364;2023-07-02T05:37:11;55.10;;;27.70;;
23078;SDS011;11707;50.830;4.364;2023-07-02T05:39:37;57.75;;;27.42;;
23078;SDS011;11707;50.830;4.364;2023-07-02T05:42:03;57.58;;;27.67;;
23078;SDS011;11707;50.830;4.364;2023-07-02T05:44:32;57.80;;;28.30;;
23078;SDS011;11707;50.830;4.364;2023-07-02T05:46:58;58.45;;;27.92;;
23078;SDS011;11707;50.830;4.364;2023-07-02T05:49:24;56.88;;;28.00;;
23078;SDS011;11707;50.830;4.364;2023-07-02T05:51:51;56.95;;;26.85;;
23078;SDS011;11707;50.830;4.364;2023-07-02T05:54:19;61.70;;;29.73;;
23078;SDS011;11707;50.830;4.364;2023-07-02T05:56:47;58.38;;;28.30;;
23078;SDS011;11707;50.830;4.364;2023-07-02T05:59:15;54.15;;;26.15;;
23078;SDS011;11707;50.830;4.364;2023-07-02T06:01:43;64.00;;;29.48;;
23078;SDS011;11707;50.830;4.364;2023-07-02T06:04:08;46.60;;;25.35;;
23078;SDS011;11707;50.830;4.364;2023-07-02T06:06:39;53.42;;;27.40;;
23078;SDS011;11707;50.830;4.364;2023-07-02T06:09:07;50.28;;;26.48;;
23078;SDS011;11707;50.830;4.364;2023-07-02T06:11:32;53.95;;;27.67;;
23078;SDS011;11707;50.830;4.364;2023-07-02T06:13:58;50.80;;;26.70;;
23078;SDS011;11707;50.830;4.364;2023-07-02T06:16:24;47.80;;;23.88;;
23078;SDS011;11707;50.830;4.364;2023-07-02T06:18:50;59.03;;;27.08;;
23078;SDS011;11707;50.830;4.364;2023-07-02T06:21:16;53.65;;;24.98;;
23078;SDS011;11707;50.830;4.364;2023-07-02T06:23:42;54.85;;;25.55;;
23078;SDS011;11707;50.830;4.364;2023-07-02T06:26:08;53.92;;;25.70;;
23078;SDS011;11707;50.830;4.364;2023-07-02T06:28:34;54.28;;;26.35;;
23078;SDS011;11707;50.830;4.364;2023-07-02T06:31:00;51.78;;;23.77;;
23078;SDS011;11707;50.830;4.364;2023-07-02T06:33:25;52.15;;;24.13;;
23078;SDS011;11707;50.830;4.364;2023-07-02T06:35:53;56.63;;;26.15;;
23078;SDS011;11707;50.830;4.364;2023-07-02T06:38:19;46.33;;;23.52;;
23078;SDS011;11707;50.830;4.364;2023-07-02T06:40:45;42.28;;;22.30;;
23078;SDS011;11707;50.830;4.364;2023-07-02T06:43:10;44.50;;;22.92;;
23078;SDS011;11707;50.830;4.364;2023-07-02T06:45:38;61.33;;;26.08;;
23078;SDS011;11707;50.830;4.364;2023-07-02T06:48:04;47.15;;;22.90;;
23078;SDS011;11707;50.830;4.364;2023-07-02T06:50:30;47.67;;;23.73;;
23078;SDS011;11707;50.830;4.364;2023-07-02T06:52:58;40.22;;;22.15;;
23078;SDS011;11707;50.830;4.364;2023-07-02T06:55:23;49.83;;;24.40;;
23078;SDS011;11707;50.830;4.364;2023-07-02T06:57:49;41.20;;;19.73;;
23078;SDS011;11707;50.830;4.364;2023-07-02T07:00:15;41.97;;;19.77;;
23078;SDS011;11707;50.830;4.364;2023-07-02T07:02:43;42.60;;;18.92;;
23078;SDS011;11707;50.830;4.364;2023-07-02T07:05:08;37.40;;;17.95;;
23078;SDS011;11707;50.830;4.364;2023-07-02T07:07:34;43.15;;;18.98;;
23078;SDS011;11707;50.830;4.364;2023-07-02T07:10:00;38.03;;;18.75;;
23078;SDS011;11707;50.830;4.364;2023-07-02T07:12:26;37.95;;;18.30;;
23078;SDS011;11707;50.830;4.364;2023-07-02T07:14:52;39.03;;;16.10;;
23078;SDS011;11707;50.830;4.364;2023-07-02T07:17:20;36.53;;;15.75;;
23078;SDS011;11707;50.830;4.364;2023-07-02T07:19:46;29.42;;;15.40;;
23078;SDS011;11707;50.830;4.364;2023-07-02T07:22:11;33.33;;;16.23;;
23078;SDS011;11707;50.830;4.364;2023-07-02T07:24:37;27.75;;;13.77;;
23078;SDS011;11707;50.830;4.364;2023-07-02T07:27:03;33.42;;;15.50;;
23078;SDS011;11707;50.830;4.364;2023-07-02T07:29:31;31.65;;;15.93;;
23078;SDS011;11707;50.830;4.364;2023-07-02T07:32:01;34.72;;;16.25;;
23078;SDS011;11707;50.830;4.364;2023-07-02T07:34:26;28.80;;;14.77;;
23078;SDS011;11707;50.830;4.364;2023-07-02T07:36:52;33.53;;;15.73;;
23078;SDS011;11707;50.830;4.364;2023-07-02T07:39:18;27.95;;;13.90;;
23078;SDS011;11707;50.830;4.364;2023-07-02T07:41:49;26.33;;;13.38;;
23078;SDS011;11707;50.830;4.364;2023-07-02T07:44:15;28.33;;;14.00;;
23078;SDS011;11707;50.830;4.364;2023-07-02T07:46:41;30.77;;;13.82;;
23078;SDS011;11707;50.830;4.364;2023-07-02T07:49:06;36.33;;;14.35;;
23078;SDS011;11707;50.830;4.364;2023-07-02T07:51:32;27.52;;;13.63;;
23078;SDS011;11707;50.830;4.364;2023-07-02T07:54:01;25.70;;;14.15;;
23078;SDS011;11707;50.830;4.364;2023-07-02T07:56:29;27.85;;;13.50;;
23078;SDS011;11707;50.830;4.364;2023-07-02T07:58:55;26.58;;;13.27;;
23078;SDS011;11707;50.830;4.364;2023-07-02T08:01:20;30.10;;;12.77;;
23078;SDS011;11707;50.830;4.364;2023-07-02T08:03:46;25.77;;;13.10;;
23078;SDS011;11707;50.830;4.364;2023-07-02T08:06:12;27.52;;;12.93;;
23078;SDS011;11707;50.830;4.364;2023-07-02T08:08:37;34.47;;;12.85;;
23078;SDS011;11707;50.830;4.364;2023-07-02T08:11:07;30.55;;;13.93;;
23078;SDS011;11707;50.830;4.364;2023-07-02T08:13:33;29.30;;;14.18;;
23078;SDS011;11707;50.830;4.364;2023-07-02T08:15:59;28.70;;;13.48;;
23078;SDS011;11707;50.830;4.364;2023-07-02T08:18:24;27.38;;;13.65;;
23078;SDS011;11707;50.830;4.364;2023-07-02T08:20:50;29.20;;;13.45;;
23078;SDS011;11707;50.830;4.364;2023-07-02T08:23:18;36.20;;;14.25;;
23078;SDS011;11707;50.830;4.364;2023-07-02T08:25:44;27.10;;;12.70;;
23078;SDS011;11707;50.830;4.364;2023-07-02T08:28:12;28.75;;;12.85;;
23078;SDS011;11707;50.830;4.364;2023-07-02T08:30:40;28.92;;;12.95;;
23078;SDS011;11707;50.830;4.364;2023-07-02T08:33:08;26.25;;;12.40;;
23078;SDS011;11707;50.830;4.364;2023-07-02T08:35:34;26.20;;;11.95;;
23078;SDS011;11707;50.830;4.364;2023-07-02T08:38:02;28.02;;;12.48;;
23078;SDS011;11707;50.830;4.364;2023-07-02T08:40:27;26.73;;;12.18;;
23078;SDS011;11707;50.830;4.364;2023-07-02T08:42:53;26.85;;;13.32;;
23078;SDS011;11707;50.830;4.364;2023-07-02T08:45:20;32.33;;;14.75;;
23078;SDS011;11707;50.830;4.364;2023-07-02T08:47:50;29.85;;;13.10;;
23078;SDS011;11707;50.830;4.364;2023-07-02T08:50:16;31.92;;;14.10;;
23078;SDS011;11707;50.830;4.364;2023-07-02T08:52:42;33.90;;;14.07;;
23078;SDS011;11707;50.830;4.364;2023-07-02T08:55:10;28.42;;;13.55;;
23078;SDS011;11707;50.830;4.364;2023-07-02T08:57:35;27.00;;;14.38;;
23078;SDS011;11707;50.830;4.364;2023-07-02T09:00:08;22.23;;;11.60;;
23078;SDS011;11707;50.830;4.364;2023-07-02T09:02:35;27.88;;;13.23;;
23078;SDS011;11707;50.830;4.364;2023-07-02T09:05:01;28.52;;;12.13;;
23078;SDS011;11707;50.830;4.364;2023-07-02T09:07:28;20.63;;;11.50;;
23078;SDS011;11707;50.830;4.364;2023-07-02T09:09:53;26.60;;;11.88;;
23078;SDS011;11707;50.830;4.364;2023-07-02T09:12:26;33.80;;;14.57;;
23078;SDS011;11707;50.830;4.364;2023-07-02T09:17:31;28.63;;;13.68;;
23078;SDS011;11707;50.830;4.364;2023-07-02T09:19:58;27.77;;;13.68;;
23078;SDS011;11707;50.830;4.364;2023-07-02T09:22:28;31.55;;;14.52;;
23078;SDS011;11707;50.830;4.364;2023-07-02T09:24:54;29.55;;;13.23;;
23078;SDS011;11707;50.830;4.364;2023-07-02T09:30:05;23.20;;;11.30;;
23078;SDS011;11707;50.830;4.364;2023-07-02T09:32:38;25.48;;;12.27;;
23078;SDS011;11707;50.830;4.364;2023-07-02T09:35:06;25.13;;;11.27;;
23078;SDS011;11707;50.830;4.364;2023-07-02T09:37:35;23.23;;;10.00;;
23078;SDS011;11707;50.830;4.364;2023-07-02T09:40:01;24.38;;;10.88;;
23078;SDS011;11707;50.830;4.364;2023-07-02T09:42:31;21.75;;;11.05;;
23078;SDS011;11707;50.830;4.364;2023-07-02T09:44:58;24.75;;;11.77;;
23078;SDS011;11707;50.830;4.364;2023-07-02T09:47:25;24.02;;;11.13;;
23078;SDS011;11707;50.830;4.364;2023-07-02T09:49:53;24.77;;;11.65;;
23078;SDS011;11707;50.830;4.364;2023-07-02T09:52:20;24.65;;;11.77;;
23078;SDS011;11707;50.830;4.364;2023-07-02T09:54:46;23.67;;;11.80;;
23078;SDS011;11707;50.830;4.364;2023-07-02T09:57:14;25.77;;;11.75;;
23078;SDS011;11707;50.830;4.364;2023-07-02T09:59:40;21.55;;;11.73;;
23078;SDS011;11707;50.830;4.364;2023-07-02T10:02:08;27.27;;;12.10;;
23078;SDS011;11707;50.830;4.364;2023-07-02T10:04:41;25.27;;;11.38;;
23078;SDS011;11707;50.830;4.364;2023-07-02T10:09:35;26.42;;;12.68;;
23078;SDS011;11707;50.830;4.364;2023-07-02T10:12:15;20.15;;;10.63;;
23078;SDS011;11707;50.830;4.364;2023-07-02T10:14:41;23.95;;;11.05;;
23078;SDS011;11707;50.830;4.364;2023-07-02T10:17:08;21.30;;;10.88;;
23078;SDS011;11707;50.830;4.364;2023-07-02T10:19:34;29.15;;;12.68;;
23078;SDS011;11707;50.830;4.364;2023-07-02T10:22:03;20.20;;;10.63;;
23078;SDS011;11707;50.830;4.364;2023-07-02T10:24:29;19.67;;;10.52;;
23078;SDS011;11707;50.830;4.364;2023-07-02T10:26:56;23.48;;;10.27;;
23078;SDS011;11707;50.830;4.364;2023-07-02T10:29:26;30.02;;;12.70;;
23078;SDS011;11707;50.830;4.364;2023-07-02T10:31:54;28.88;;;11.55;;
23078;SDS011;11707;50.830;4.364;2023-07-02T10:34:28;23.38;;;11.73;;
23078;SDS011;11707;50.830;4.364;2023-07-02T10:36:55;22.90;;;11.45;;
23078;SDS011;11707;50.830;4.364;2023-07-02T10:39:21;22.92;;;11.70;;
23078;SDS011;11707;50.830;4.364;2023-07-02T10:41:46;21.10;;;11.75;;
23078;SDS011;11707;50.830;4.364;2023-07-02T10:44:12;29.40;;;11.63;;
23078;SDS011;11707;50.830;4.364;2023-07-02T10:46:47;22.63;;;10.98;;
23078;SDS011;11707;50.830;4.364;2023-07-02T10:49:16;23.33;;;10.70;;
23078;SDS011;11707;50.830;4.364;2023-07-02T10:51:56;22.80;;;10.73;;
23078;SDS011;11707;50.830;4.364;2023-07-02T10:54:45;25.02;;;10.73;;
23078;SDS011;11707;50.830;4.364;2023-07-02T10:57:16;23.33;;;11.10;;
23078;SDS011;11707;50.830;4.364;2023-07-02T10:59:45;20.60;;;11.68;;
23078;SDS011;11707;50.830;4.364;2023-07-02T11:02:11;25.55;;;11.73;;
23078;SDS011;11707;50.830;4.364;2023-07-02T11:04:37;21.20;;;10.45;;
23078;SDS011;11707;50.830;4.364;2023-07-02T11:07:03;25.50;;;10.77;;
23078;SDS011;11707;50.830;4.364;2023-07-02T11:09:30;22.65;;;12.07;;
23078;SDS011;11707;50.830;4.364;2023-07-02T11:11:59;19.25;;;10.95;;
23078;SDS011;11707;50.830;4.364;2023-07-02T11:14:29;22.08;;;10.35;;
23078;SDS011;11707;50.830;4.364;2023-07-02T11:17:04;20.48;;;10.70;;
23078;SDS011;11707;50.830;4.364;2023-07-02T11:19:31;27.85;;;9.60;;
23078;SDS011;11707;50.830;4.364;2023-07-02T11:22:01;24.65;;;9.85;;
23078;SDS011;11707;50.830;4.364;2023-07-02T11:24:31;21.85;;;10.38;;
23078;SDS011;11707;50.830;4.364;2023-07-02T11:27:00;24.73;;;9.98;;
23078;SDS011;11707;50.830;4.364;2023-07-02T11:29:28;17.27;;;9.15;;
23078;SDS011;11707;50.830;4.364;2023-07-02T11:34:34;20.10;;;8.43;;
23078;SDS011;11707;50.830;4.364;2023-07-02T11:37:02;18.52;;;9.07;;
23078;SDS011;11707;50.830;4.364;2023-07-02T11:39:29;31.45;;;10.73;;
23078;SDS011;11707;50.830;4.364;2023-07-02T11:41:55;19.42;;;9.80;;
23078;SDS011;11707;50.830;4.364;2023-07-02T11:44:21;25.73;;;9.52;;
23078;SDS011;11707;50.830;4.364;2023-07-02T11:46:47;18.23;;;8.68;;
23078;SDS011;11707;50.830;4.364;2023-07-02T11:49:13;22.40;;;9.05;;
23078;SDS011;11707;50.830;4.364;2023-07-02T11:51:41;18.20;;;10.23;;
23078;SDS011;11707;50.830;4.364;2023-07-02T11:54:13;21.88;;;9.77;;
23078;SDS011;11707;50.830;4.364;2023-07-02T11:56:39;19.33;;;9.18;;
23078;SDS011;11707;50.830;4.364;2023-07-02T11:59:07;20.52;;;10.25;;
23078;SDS011;11707;50.830;4.364;2023-07-02T12:01:33;19.95;;;9.18;;
23078;SDS011;11707;50.830;4.364;2023-07-02T12:04:01;15.55;;;8.90;;
23078;SDS011;11707;50.830;4.364;2023-07-02T12:06:26;22.83;;;10.13;;
23078;SDS011;11707;50.830;4.364;2023-07-02T12:08:52;21.17;;;9.00;;
23078;SDS011;11707;50.830;4.364;2023-07-02T12:11:18;24.15;;;13.68;;
23078;SDS011;11707;50.830;4.364;2023-07-02T12:13:43;17.70;;;8.70;;
23078;SDS011;11707;50.830;4.364;2023-07-02T12:16:09;19.15;;;8.73;;
23078;SDS011;11707;50.830;4.364;2023-07-02T12:18:35;17.63;;;9.63;;
23078;SDS011;11707;50.830;4.364;2023-07-02T12:21:00;17.25;;;8.23;;
23078;SDS011;11707;50.830;4.364;2023-07-02T12:23:28;21.27;;;8.77;;
23078;SDS011;11707;50.830;4.364;2023-07-02T12:25:54;18.10;;;8.88;;
23078;SDS011;11707;50.830;4.364;2023-07-02T12:28:22;18.58;;;9.27;;
23078;SDS011;11707;50.830;4.364;2023-07-02T12:30:48;20.20;;;8.48;;
23078;SDS011;11707;50.830;4.364;2023-07-02T12:33:14;21.08;;;7.90;;
23078;SDS011;11707;50.830;4.364;2023-07-02T12:35:39;18.70;;;8.18;;
23078;SDS011;11707;50.830;4.364;2023-07-02T12:38:05;21.25;;;9.90;;
23078;SDS011;11707;50.830;4.364;2023-07-02T12:40:33;19.75;;;9.23;;
23078;SDS011;11707;50.830;4.364;2023-07-02T12:42:59;20.52;;;8.40;;
23078;SDS011;11707;50.830;4.364;2023-07-02T12:45:27;23.73;;;9.20;;
23078;SDS011;11707;50.830;4.364;2023-07-02T12:47:53;16.85;;;8.77;;
23078;SDS011;11707;50.830;4.364;2023-07-02T12:50:24;17.23;;;7.85;;
23078;SDS011;11707;50.830;4.364;2023-07-02T12:52:50;17.15;;;8.52;;
23078;SDS011;11707;50.830;4.364;2023-07-02T12:55:15;19.38;;;9.27;;
23078;SDS011;11707;50.830;4.364;2023-07-02T12:57:41;19.33;;;9.80;;
23078;SDS011;11707;50.830;4.364;2023-07-02T13:00:07;19.92;;;10.02;;
23078;SDS011;11707;50.830;4.364;2023-07-02T13:02:34;16.98;;;7.63;;
23078;SDS011;11707;50.830;4.364;2023-07-02T13:04:59;14.73;;;7.70;;
23078;SDS011;11707;50.830;4.364;2023-07-02T13:07:25;18.10;;;8.40;;
23078;SDS011;11707;50.830;4.364;2023-07-02T13:09:51;17.58;;;8.68;;
23078;SDS011;11707;50.830;4.364;2023-07-02T13:12:19;14.65;;;7.55;;
23078;SDS011;11707;50.830;4.364;2023-07-02T13:14:45;18.00;;;8.23;;
23078;SDS011;11707;50.830;4.364;2023-07-02T13:17:10;21.02;;;8.40;;
23078;SDS011;11707;50.830;4.364;2023-07-02T13:19:36;17.38;;;7.85;;
23078;SDS011;11707;50.830;4.364;2023-07-02T13:22:02;16.52;;;8.93;;
23078;SDS011;11707;50.830;4.364;2023-07-02T13:24:28;22.67;;;8.50;;
23078;SDS011;11707;50.830;4.364;2023-07-02T13:27:00;16.80;;;7.43;;
23078;SDS011;11707;50.830;4.364;2023-07-02T13:29:27;16.17;;;8.20;;
23078;SDS011;11707;50.830;4.364;2023-07-02T13:31:53;17.33;;;7.72;;
23078;SDS011;11707;50.830;4.364;2023-07-02T13:34:19;22.33;;;7.90;;
23078;SDS011;11707;50.830;4.364;2023-07-02T13:36:47;19.23;;;8.80;;
23078;SDS011;11707;50.830;4.364;2023-07-02T13:39:13;17.58;;;7.55;;
23078;SDS011;11707;50.830;4.364;2023-07-02T13:41:38;16.20;;;8.00;;
23078;SDS011;11707;50.830;4.364;2023-07-02T13:44:04;15.18;;;7.55;;
23078;SDS011;11707;50.830;4.364;2023-07-02T13:46:30;18.17;;;7.78;;
23078;SDS011;11707;50.830;4.364;2023-07-02T13:48:56;16.60;;;8.93;;
23078;SDS011;11707;50.830;4.364;2023-07-02T13:51:23;17.98;;;8.32;;
23078;SDS011;11707;50.830;4.364;2023-07-02T13:53:49;16.15;;;7.57;;
23078;SDS011;11707;50.830;4.364;2023-07-02T13:56:18;14.80;;;7.22;;
23078;SDS011;11707;50.830;4.364;2023-07-02T13:58:57;18.98;;;8.00;;
23078;SDS011;11707;50.830;4.364;2023-07-02T14:01:25;13.63;;;7.22;;
23078;SDS011;11707;50.830;4.364;2023-07-02T14:03:51;17.80;;;8.82;;
23078;SDS011;11707;50.830;4.364;2023-07-02T14:06:19;14.75;;;7.85;;
23078;SDS011;11707;50.830;4.364;2023-07-02T14:08:45;16.45;;;8.43;;
23078;SDS011;11707;50.830;4.364;2023-07-02T14:11:10;16.80;;;8.57;;
23078;SDS011;11707;50.830;4.364;2023-07-02T14:13:36;17.40;;;8.60;;
23078;SDS011;11707;50.830;4.364;2023-07-02T14:16:02;15.48;;;7.82;;
23078;SDS011;11707;50.830;4.364;2023-07-02T14:18:28;16.13;;;7.38;;
23078;SDS011;11707;50.830;4.364;2023-07-02T14:20:53;17.90;;;8.05;;
23078;SDS011;11707;50.830;4.364;2023-07-02T14:23:19;16.25;;;7.43;;
23078;SDS011;11707;50.830;4.364;2023-07-02T14:25:45;16.00;;;8.27;;
23078;SDS011;11707;50.830;4.364;2023-07-02T14:28:13;18.08;;;8.10;;
23078;SDS011;11707;50.830;4.364;2023-07-02T14:30:41;15.93;;;7.93;;
23078;SDS011;11707;50.830;4.364;2023-07-02T14:33:10;13.98;;;7.43;;